K12 EFTU-EFPO
Flight info
| Callsign | K12 |
|---|---|
| Flight time | 0h 34m |
| Altitude | 3000 |
| Route | NOUSU MYNAMAKI LAITILA RAUTU TC |
| Aircraft | G1/L-SDGRY/S |
Departure
| Time | 2026-05-06 16:40 |
|---|---|
| Airport | Turku Airport (EFTU) |
Arrival
| Time | 2026-05-06 17:15 |
|---|---|
| Airport | Pori Airport (EFPO) |
| Time | Latitude | Longitude | Altitude | Speed | Heading |
|---|---|---|---|---|---|
| 2026-05-06 16:35 | 60.51153 | 22.26579 | 157 ft | 0 kts | 176° |
| 2026-05-06 16:37 | 60.51151 | 22.26579 | 157 ft | 4 kts | 192° |
| 2026-05-06 16:38 | 60.51205 | 22.26583 | 152 ft | 21 kts | 37° |
| 2026-05-06 16:38 | 60.51307 | 22.26709 | 142 ft | 9 kts | 29° |
| 2026-05-06 16:38 | 60.51372 | 22.26727 | 140 ft | 10 kts | 353° |
| 2026-05-06 16:38 | 60.51425 | 22.26731 | 141 ft | 7 kts | 39° |
| 2026-05-06 16:39 | 60.51435 | 22.26818 | 140 ft | 19 kts | 86° |
| 2026-05-06 16:39 | 60.51463 | 22.27483 | 153 ft | 70 kts | 85° |
| 2026-05-06 16:39 | 60.51520 | 22.28495 | 354 ft | 75 kts | 75° |
| 2026-05-06 16:39 | 60.51610 | 22.29647 | 536 ft | 88 kts | 74° |
| 2026-05-06 16:40 | 60.51719 | 22.30993 | 675 ft | 104 kts | 80° |
| 2026-05-06 16:40 | 60.51881 | 22.32428 | 896 ft | 106 kts | 48° |
| 2026-05-06 16:40 | 60.52502 | 22.32835 | 1133 ft | 96 kts | 334° |
| 2026-05-06 16:40 | 60.53022 | 22.32024 | 1387 ft | 95 kts | 308° |
| 2026-05-06 16:41 | 60.53446 | 22.31080 | 1736 ft | 86 kts | 313° |
| 2026-05-06 16:41 | 60.53869 | 22.30178 | 1927 ft | 94 kts | 307° |
| 2026-05-06 16:41 | 60.54252 | 22.28970 | 1949 ft | 113 kts | 301° |
| 2026-05-06 16:41 | 60.54683 | 22.27476 | 1784 ft | 131 kts | 298° |
| 2026-05-06 16:42 | 60.55133 | 22.25777 | 1582 ft | 138 kts | 300° |
| 2026-05-06 16:42 | 60.55697 | 22.24217 | 1530 ft | 134 kts | 303° |
| 2026-05-06 16:42 | 60.56205 | 22.22670 | 1517 ft | 132 kts | 302° |
| 2026-05-06 16:42 | 60.56695 | 22.21093 | 1426 ft | 135 kts | 303° |
| 2026-05-06 16:43 | 60.57244 | 22.19497 | 1285 ft | 140 kts | 306° |
| 2026-05-06 16:43 | 60.57812 | 22.17885 | 1192 ft | 140 kts | 302° |
| 2026-05-06 16:43 | 60.58331 | 22.16214 | 1141 ft | 137 kts | 299° |
| 2026-05-06 16:43 | 60.58831 | 22.14569 | 1043 ft | 139 kts | 301° |
| 2026-05-06 16:44 | 60.59349 | 22.12927 | 1072 ft | 132 kts | 301° |
| 2026-05-06 16:44 | 60.59821 | 22.11333 | 990 ft | 136 kts | 300° |
| 2026-05-06 16:44 | 60.60264 | 22.09671 | 990 ft | 131 kts | 296° |
| 2026-05-06 16:44 | 60.60713 | 22.08096 | 1013 ft | 128 kts | 303° |
| 2026-05-06 16:45 | 60.61221 | 22.06587 | 1003 ft | 129 kts | 304° |
| 2026-05-06 16:45 | 60.61866 | 22.05322 | 979 ft | 130 kts | 328° |
| 2026-05-06 16:45 | 60.62732 | 22.04894 | 1067 ft | 126 kts | 350° |
| 2026-05-06 16:45 | 60.63625 | 22.04741 | 1058 ft | 132 kts | 353° |
| 2026-05-06 16:46 | 60.64533 | 22.04529 | 1092 ft | 130 kts | 348° |
| 2026-05-06 16:46 | 60.65386 | 22.04004 | 1175 ft | 127 kts | 334° |
| 2026-05-06 16:46 | 60.66130 | 22.03103 | 1319 ft | 123 kts | 320° |
| 2026-05-06 16:46 | 60.66779 | 22.02040 | 1512 ft | 117 kts | 316° |
| 2026-05-06 16:47 | 60.67377 | 22.00971 | 1701 ft | 112 kts | 318° |
| 2026-05-06 16:47 | 60.67991 | 21.99946 | 1831 ft | 115 kts | 320° |
| 2026-05-06 16:47 | 60.68626 | 21.99031 | 2022 ft | 112 kts | 326° |
| 2026-05-06 16:47 | 60.69300 | 21.98300 | 2215 ft | 111 kts | 333° |
| 2026-05-06 16:48 | 60.70020 | 21.97737 | 2376 ft | 110 kts | 337° |
| 2026-05-06 16:48 | 60.70711 | 21.97207 | 2633 ft | 105 kts | 335° |
| 2026-05-06 16:48 | 60.71420 | 21.96707 | 2794 ft | 109 kts | 338° |
| 2026-05-06 16:48 | 60.72126 | 21.96047 | 2803 ft | 121 kts | 320° |
| 2026-05-06 16:49 | 60.72789 | 21.94874 | 2706 ft | 131 kts | 315° |
| 2026-05-06 16:49 | 60.73445 | 21.93582 | 2737 ft | 131 kts | 314° |
| 2026-05-06 16:49 | 60.74117 | 21.92316 | 2699 ft | 135 kts | 317° |
| 2026-05-06 16:49 | 60.74920 | 21.91179 | 2477 ft | 145 kts | 330° |
| 2026-05-06 16:50 | 60.75880 | 21.90443 | 2290 ft | 146 kts | 340° |
| 2026-05-06 16:50 | 60.76814 | 21.89797 | 2308 ft | 137 kts | 335° |
| 2026-05-06 16:50 | 60.77648 | 21.88962 | 2321 ft | 131 kts | 323° |
| 2026-05-06 16:50 | 60.78380 | 21.87849 | 2261 ft | 133 kts | 319° |
| 2026-05-06 16:51 | 60.79113 | 21.86660 | 2174 ft | 135 kts | 321° |
| 2026-05-06 16:51 | 60.79906 | 21.85639 | 2180 ft | 134 kts | 329° |
| 2026-05-06 16:51 | 60.80726 | 21.84842 | 2287 ft | 127 kts | 330° |
| 2026-05-06 16:51 | 60.81514 | 21.84011 | 2247 ft | 133 kts | 328° |
| 2026-05-06 16:52 | 60.82300 | 21.82986 | 2185 ft | 134 kts | 321° |
| 2026-05-06 16:52 | 60.83025 | 21.81793 | 2153 ft | 134 kts | 315° |
| 2026-05-06 16:52 | 60.83702 | 21.80417 | 1962 ft | 142 kts | 311° |
| 2026-05-06 16:52 | 60.84290 | 21.78764 | 1708 ft | 144 kts | 300° |
| 2026-05-06 16:53 | 60.84790 | 21.77031 | 1632 ft | 136 kts | 298° |
| 2026-05-06 16:53 | 60.85340 | 21.75502 | 1648 ft | 133 kts | 308° |
| 2026-05-06 16:53 | 60.85981 | 21.74101 | 1652 ft | 132 kts | 308° |
| 2026-05-06 16:53 | 60.86518 | 21.72634 | 1728 ft | 128 kts | 300° |
| 2026-05-06 16:54 | 60.86984 | 21.71073 | 1748 ft | 128 kts | 299° |
| 2026-05-06 16:54 | 60.87493 | 21.69599 | 1490 ft | 132 kts | 301° |
| 2026-05-06 16:54 | 60.87986 | 21.68152 | 1815 ft | 111 kts | 306° |
| 2026-05-06 16:54 | 60.88531 | 21.66827 | 1324 ft | 145 kts | 314° |
| 2026-05-06 16:55 | 60.89322 | 21.65760 | 1595 ft | 121 kts | 326° |
| 2026-05-06 16:55 | 60.90001 | 21.64913 | 1914 ft | 109 kts | 326° |
| 2026-05-06 16:55 | 60.90661 | 21.64167 | 2151 ft | 105 kts | 327° |
| 2026-05-06 16:55 | 60.91297 | 21.63439 | 2387 ft | 105 kts | 327° |
| 2026-05-06 16:56 | 60.91931 | 21.62682 | 2558 ft | 109 kts | 327° |
| 2026-05-06 16:56 | 60.92602 | 21.61871 | 2689 ft | 114 kts | 327° |
| 2026-05-06 16:56 | 60.93319 | 21.61060 | 2755 ft | 120 kts | 331° |
| 2026-05-06 16:56 | 60.94130 | 21.60436 | 2747 ft | 129 kts | 342° |
| 2026-05-06 16:57 | 60.94968 | 21.60040 | 2869 ft | 125 kts | 347° |
| 2026-05-06 16:57 | 60.95855 | 21.59888 | 2893 ft | 129 kts | 355° |
| 2026-05-06 16:57 | 60.96757 | 21.59855 | 2936 ft | 130 kts | 354° |
| 2026-05-06 16:57 | 60.97648 | 21.59600 | 2962 ft | 129 kts | 340° |
| 2026-05-06 16:58 | 60.98484 | 21.58857 | 2934 ft | 132 kts | 332° |
| 2026-05-06 16:58 | 60.99308 | 21.58028 | 2947 ft | 131 kts | 333° |
| 2026-05-06 16:58 | 61.00155 | 21.57360 | 3000 ft | 129 kts | 338° |
| 2026-05-06 16:58 | 61.01008 | 21.56754 | 3026 ft | 128 kts | 337° |
| 2026-05-06 16:59 | 61.01832 | 21.56053 | 3063 ft | 128 kts | 334° |
| 2026-05-06 16:59 | 61.02604 | 21.55229 | 3061 ft | 121 kts | 321° |
| 2026-05-06 16:59 | 61.03264 | 21.54262 | 3138 ft | 114 kts | 325° |
| 2026-05-06 16:59 | 61.04014 | 21.53392 | 3025 ft | 130 kts | 329° |
| 2026-05-06 17:00 | 61.04845 | 21.52562 | 2970 ft | 135 kts | 340° |
| 2026-05-06 17:00 | 61.05781 | 21.52304 | 2901 ft | 139 kts | 354° |
| 2026-05-06 17:00 | 61.06751 | 21.52125 | 2807 ft | 140 kts | 349° |
| 2026-05-06 17:00 | 61.07682 | 21.51857 | 2824 ft | 136 kts | 347° |
| 2026-05-06 17:01 | 61.08632 | 21.51441 | 2615 ft | 146 kts | 345° |
| 2026-05-06 17:01 | 61.09637 | 21.51066 | 2436 ft | 147 kts | 347° |
| 2026-05-06 17:01 | 61.10665 | 21.50929 | 2241 ft | 152 kts | 4° |
| 2026-05-06 17:01 | 61.11681 | 21.51553 | 2028 ft | 156 kts | 26° |
| 2026-05-06 17:02 | 61.12608 | 21.52659 | 1961 ft | 151 kts | 30° |
| 2026-05-06 17:02 | 61.13443 | 21.53844 | 2037 ft | 143 kts | 38° |
| 2026-05-06 17:02 | 61.14169 | 21.55287 | 1993 ft | 146 kts | 44° |
| 2026-05-06 17:02 | 61.14868 | 21.56788 | 2006 ft | 144 kts | 44° |
| 2026-05-06 17:03 | 61.15553 | 21.58302 | 2044 ft | 142 kts | 46° |
| 2026-05-06 17:03 | 61.16212 | 21.59789 | 2133 ft | 140 kts | 47° |
| 2026-05-06 17:03 | 61.16715 | 21.61506 | 2199 ft | 138 kts | 65° |
| 2026-05-06 17:03 | 61.17133 | 21.63298 | 2244 ft | 140 kts | 56° |
| 2026-05-06 17:04 | 61.17683 | 21.64936 | 2256 ft | 141 kts | 54° |
| 2026-05-06 17:04 | 61.18242 | 21.66656 | 2229 ft | 145 kts | 56° |
| 2026-05-06 17:04 | 61.18705 | 21.68477 | 2275 ft | 142 kts | 65° |
| 2026-05-06 17:04 | 61.19153 | 21.70257 | 2385 ft | 135 kts | 55° |
| 2026-05-06 17:05 | 61.19751 | 21.71780 | 2360 ft | 142 kts | 44° |
| 2026-05-06 17:05 | 61.20583 | 21.72829 | 2219 ft | 145 kts | 3° |
| 2026-05-06 17:05 | 61.21590 | 21.72403 | 1883 ft | 154 kts | 340° |
| 2026-05-06 17:05 | 61.22613 | 21.71889 | 1846 ft | 144 kts | 346° |
| 2026-05-06 17:06 | 61.23569 | 21.71671 | 1951 ft | 137 kts | 352° |
| 2026-05-06 17:06 | 61.24526 | 21.71559 | 1942 ft | 137 kts | 353° |
| 2026-05-06 17:06 | 61.25497 | 21.71397 | 1830 ft | 144 kts | 349° |
| 2026-05-06 17:06 | 61.26483 | 21.70972 | 1718 ft | 144 kts | 344° |
| 2026-05-06 17:07 | 61.27397 | 21.70214 | 1643 ft | 141 kts | 328° |
| 2026-05-06 17:07 | 61.28233 | 21.69181 | 1636 ft | 138 kts | 325° |
| 2026-05-06 17:07 | 61.29049 | 21.68146 | 1615 ft | 137 kts | 326° |
| 2026-05-06 17:07 | 61.29906 | 21.67265 | 1574 ft | 137 kts | 333° |
| 2026-05-06 17:08 | 61.30797 | 21.66567 | 1552 ft | 136 kts | 342° |
| 2026-05-06 17:08 | 61.31774 | 21.66320 | 1313 ft | 147 kts | 353° |
| 2026-05-06 17:08 | 61.32793 | 21.66212 | 1130 ft | 148 kts | 354° |
| 2026-05-06 17:08 | 61.33807 | 21.65945 | 941 ft | 143 kts | 343° |
| 2026-05-06 17:09 | 61.34759 | 21.65496 | 842 ft | 137 kts | 344° |
| 2026-05-06 17:09 | 61.35669 | 21.65156 | 863 ft | 130 kts | 358° |
| 2026-05-06 17:09 | 61.36447 | 21.65919 | 1000 ft | 127 kts | 47° |
| 2026-05-06 17:09 | 61.36855 | 21.67581 | 1002 ft | 130 kts | 64° |
| 2026-05-06 17:10 | 61.37240 | 21.69226 | 1140 ft | 121 kts | 66° |
| 2026-05-06 17:10 | 61.37605 | 21.70797 | 1238 ft | 119 kts | 63° |
| 2026-05-06 17:10 | 61.38005 | 21.72296 | 1332 ft | 117 kts | 59° |
| 2026-05-06 17:10 | 61.38447 | 21.73745 | 1387 ft | 120 kts | 54° |
| 2026-05-06 17:11 | 61.38946 | 21.75157 | 1432 ft | 121 kts | 52° |
| 2026-05-06 17:11 | 61.39428 | 21.76612 | 1457 ft | 123 kts | 55° |
| 2026-05-06 17:11 | 61.39902 | 21.77966 | 1484 ft | 105 kts | 47° |
| 2026-05-06 17:11 | 61.40384 | 21.79045 | 1468 ft | 102 kts | 41° |
| 2026-05-06 17:12 | 61.40906 | 21.80084 | 1471 ft | 104 kts | 37° |
| 2026-05-06 17:12 | 61.41475 | 21.81071 | 1430 ft | 108 kts | 34° |
| 2026-05-06 17:12 | 61.42090 | 21.81938 | 1369 ft | 103 kts | 29° |
| 2026-05-06 17:12 | 61.42665 | 21.82650 | 1321 ft | 87 kts | 23° |
| 2026-05-06 17:13 | 61.43223 | 21.83236 | 1069 ft | 92 kts | 21° |
| 2026-05-06 17:13 | 61.43821 | 21.83691 | 838 ft | 89 kts | 9° |
| 2026-05-06 17:13 | 61.44396 | 21.83766 | 624 ft | 83 kts | 342° |
| 2026-05-06 17:13 | 61.44923 | 21.83295 | 383 ft | 81 kts | 316° |
| 2026-05-06 17:14 | 61.45304 | 21.82516 | 244 ft | 73 kts | 302° |
| 2026-05-06 17:14 | 61.45596 | 21.81658 | 124 ft | 71 kts | 302° |
| 2026-05-06 17:14 | 61.45883 | 21.80832 | 59 ft | 67 kts | 302° |
| 2026-05-06 17:14 | 61.46129 | 21.80120 | 51 ft | 54 kts | 298° |
| 2026-05-06 17:15 | 61.46320 | 21.79562 | 39 ft | 38 kts | 306° |
| 2026-05-06 17:15 | 61.46450 | 21.79187 | 39 ft | 27 kts | 306° |
| 2026-05-06 17:15 | 61.46544 | 21.78915 | 38 ft | 17 kts | 304° |
| 2026-05-06 17:15 | 61.46621 | 21.78784 | 39 ft | 12 kts | 358° |
| 2026-05-06 17:16 | 61.46718 | 21.78953 | 40 ft | 22 kts | 68° |
| 2026-05-06 17:16 | 61.46688 | 21.79273 | 39 ft | 23 kts | 99° |
| 2026-05-06 17:16 | 61.46663 | 21.79586 | 38 ft | 20 kts | 93° |
| 2026-05-06 17:16 | 61.46633 | 21.79811 | 37 ft | 4 kts | 121° |